Covington, Texas
Current Conditions -  °F | °C
As of 12:35 AM on Saturday 20 Dec 2014 (Local Time) from KINJ Reporting Station
Haze Haze  
Wind Chill: 44°   Ceiling: 700
Heat Index: 48°   Visibility: 5mi
Dew Point: 45°   Wind: 7mph
Humidity: 90%   Direction: 350°N
Pressure: 30.2"   Gusts: NA
Location:  32.18°N, 97.26°W
Report Text: KINJ 200635Z AUTO 35006KT 5SM BR OVC007 09/07 A3020 RMK AO2 T00870071
Loading
Personal Weather Stations






























Interactive Weather Map New forecast layout! Learn more

10-Day Weather Forecast

Advertisements
Track Severe Weather on mobile